Accueil
METAR-TAF:

METAR-TAF

Aéroports :

Villacoublay, France

Base aérienne 107 Villacoublay

latitude: 48-46N, longitude: 002-12E, altitude: 177 m

Observation

Le bulletin a été fait il y a 35 minutes, à 17:00 UTC
Vent 2 kt de direction variable
Température 19°C
Humidité 49%
Pression 1017 hPa
Visibilité 10 km ou plus
pas de nuages en-dessous de 1500 mètres et pas de cumulonimbus.

METAR: LFPV 211700Z AUTO VRB02KT CAVOK 19/08 Q1017 NOSIG

Heure: 19:35 (17:35 UTC)

Prévision

Le bulletin a été fait il y a 3 heures et 35 minutes, à 14:00 UTC
Prévision valable du 21 à 15 UTC au 22 à 15 UTC
Vent 5 kt de sud-est
Visibilité 10 km ou plus
pas de nuages en-dessous de 1500 mètres et pas de cumulonimbus.
Probabilité 30% :
Temporairement
du 22 à 02 UTC au 22 à 06 UTC
Nuages fragmentés à une hauteur de 800 ft
pluie faible, bruine

TAF: LFPV 211400Z 2115/2215 14005KT CAVOK PROB30 TEMPO 2202/2206 -RADZ BKN008

Observations et prévisions météorologiques de plus de 4000 aéroports (messages METAR et TAF).

Les stations disponibles sont représentées par des disques jaunes et rouges sur la carte.

Passer la souris dessus pour voir le nom de la station.

Cliquer dessus pour voir les observations et prévisions météorologiques.

Pour changer de carte: cliquez sur les boutons verts avec une croix noire pour zoomer, sur le bouton vert avec un tiret pour effectuer un zoom arrière, ou sur les flèches vertes pour les cartes adjacentes.


METAR-TAF: